North Egremont, Massachusetts
Current Conditions -  °F | °C
As of 4:34 PM on Friday 24 Oct 2014 (Local Time) from KPSF Reporting Station
Overcast Overcast  
Wind Chill: 43°   Ceiling: 1000
Heat Index: 45°   Visibility: 10mi
Dew Point: 42°   Wind: 5mph
Humidity: 90%   Direction: NA
Pressure: 29.76"   Gusts: NA
Location:  42.2°N, 73.44°W
Report Text: KPSF 242034Z AUTO VRB04KT 10SM OVC010 07/06 A2976 RMK AO2 CIG 006V014 T00720056
Loading
Personal Weather Stations






























Interactive Weather Map
Tropical Storm Tracking
New forecast layout! Learn more

10-Day Weather Forecast

Advertisements
Track Severe Weather on mobile